createdAt,value
2022-12-17T00:21:35.995Z,100401.33
2022-12-17T00:24:50.586Z,100406.64
2022-12-17T00:29:04.647Z,100410.09
2022-12-17T00:33:16.857Z,100418.27
2022-12-17T00:37:29.070Z,100421.12
2022-12-17T00:42:00.286Z,100425.55
2022-12-17T00:45:20.989Z,100429.42
2022-12-17T00:49:35.175Z,100436.06
2022-12-17T00:52:40.115Z,100434.36
2022-12-17T00:55:44.887Z,100435.64
2022-12-17T00:58:49.951Z,100436.21
2022-12-17T01:01:54.765Z,100440.36
2022-12-17T01:05:02.063Z,100447.27
2022-12-17T01:08:07.147Z,100451.45
2022-12-17T01:11:16.597Z,100451.08
2022-12-17T01:14:22.187Z,100451.22
2022-12-17T01:19:01.382Z,100449.14
2022-12-17T01:23:15.599Z,100447.53
2022-12-17T01:27:31.005Z,100436.98
2022-12-17T01:31:53.722Z,100448.48
2022-12-17T01:35:25.407Z,100454.17
2022-12-17T01:39:42.071Z,100454.98
2022-12-17T01:43:58.048Z,100458.93
2022-12-17T01:48:21.387Z,100455.70
2022-12-17T01:52:36.578Z,100456.77
2022-12-17T01:56:51.700Z,100457.46
2022-12-17T02:01:25.900Z,100466.63
2022-12-17T02:05:04.301Z,100475.98
2022-12-17T02:08:42.076Z,100473.58
2022-12-17T02:12:02.948Z,100471.56
2022-12-17T02:15:21.654Z,100472.41
2022-12-17T02:18:33.205Z,100475.10
2022-12-17T02:21:40.173Z,100479.90
2022-12-17T02:26:16.074Z,100481.79
2022-12-17T02:30:29.058Z,100472.54
2022-12-17T02:34:43.363Z,100467.24
2022-12-17T02:38:58.504Z,100456.39
2022-12-17T02:43:10.864Z,100456.75
2022-12-17T02:52:34.830Z,100466.59
2022-12-17T02:55:40.605Z,100467.00
2022-12-17T02:58:45.896Z,100471.91
2022-12-17T03:01:50.779Z,100477.73
2022-12-17T03:04:56.378Z,100481.24
2022-12-17T03:08:08.499Z,100475.16
2022-12-17T03:12:20.737Z,100474.87
2022-12-17T03:16:38.274Z,100484.77
2022-12-17T03:21:15.894Z,100469.65
2022-12-17T03:24:31.076Z,100465.15
2022-12-17T03:28:45.713Z,100473.88
2022-12-17T03:33:00.230Z,100468.65
2022-12-17T03:37:34.100Z,100471.79
2022-12-17T03:40:52.229Z,100467.33
2022-12-17T03:45:06.654Z,100479.00
2022-12-17T03:49:38.197Z,100483.27
2022-12-17T03:52:57.505Z,100474.76
2022-12-17T03:57:15.916Z,100466.85
2022-12-17T04:01:31.813Z,100474.05
2022-12-17T04:05:44.350Z,100480.10
2022-12-17T04:09:56.403Z,100474.11
2022-12-17T04:14:08.708Z,100468.86
2022-12-17T04:18:20.802Z,100478.77
2022-12-17T04:22:46.003Z,100487.23
2022-12-17T04:27:03.124Z,100491.58
2022-12-17T04:31:20.130Z,100501.44
2022-12-17T04:34:26.373Z,100510.45
2022-12-17T04:37:31.615Z,100522.27
2022-12-17T04:40:36.648Z,100529.30
2022-12-17T04:43:42.832Z,100531.02
2022-12-17T04:46:57.997Z,100540.77
2022-12-17T04:50:03.519Z,100549.29
2022-12-17T04:53:09.894Z,100562.17
2022-12-17T04:56:15.706Z,100568.08
2022-12-17T04:59:20.743Z,100575.29
2022-12-17T05:02:42.820Z,100581.98
2022-12-17T05:05:49.430Z,100587.11
2022-12-17T05:08:56.358Z,100590.88
2022-12-17T05:12:09.263Z,100596.77
2022-12-17T05:15:15.599Z,100602.85
2022-12-17T05:18:38.972Z,100595.89
2022-12-17T05:21:44.676Z,100592.43
2022-12-17T05:24:51.590Z,100592.79
2022-12-17T05:27:56.882Z,100598.70
2022-12-17T05:32:28.560Z,100602.86
2022-12-17T05:37:33.125Z,100603.87
2022-12-17T05:51:55.475Z,100602.73
2022-12-17T06:05:35.157Z,100613.22
2022-12-17T06:08:47.427Z,100609.48
2022-12-17T06:23:30.524Z,100621.52
2022-12-17T06:26:45.567Z,100629.51
2022-12-17T06:31:00.375Z,100635.76
2022-12-17T06:34:08.484Z,100647.66
2022-12-17T06:37:14.267Z,100656.98
2022-12-17T06:40:20.055Z,100660.02
2022-12-17T06:44:50.521Z,100672.52
2022-12-17T06:47:56.411Z,100673.29
2022-12-17T06:51:01.763Z,100669.77
2022-12-17T06:54:07.746Z,100662.56
2022-12-17T06:57:13.440Z,100672.90
2022-12-17T07:00:18.842Z,100685.22
2022-12-17T07:03:24.501Z,100696.70
2022-12-17T07:06:29.792Z,100703.50
2022-12-17T07:09:34.718Z,100701.45
2022-12-17T07:12:40.782Z,100706.33
2022-12-17T07:15:48.411Z,100701.48
2022-12-17T07:18:53.330Z,100699.75
2022-12-17T07:21:59.053Z,100696.80
2022-12-17T07:25:03.938Z,100698.23
2022-12-17T07:28:20.147Z,100697.71
2022-12-17T07:31:25.257Z,100700.48
2022-12-17T07:34:30.361Z,100707.05
2022-12-17T07:37:40.221Z,100706.18
2022-12-17T07:40:45.595Z,100707.94
2022-12-17T07:43:53.206Z,100714.15
2022-12-17T07:46:59.226Z,100726.80
2022-12-17T07:50:04.461Z,100732.02
2022-12-17T07:53:22.668Z,100736.54
2022-12-17T07:56:27.739Z,100743.37
2022-12-17T07:59:32.696Z,100746.08
2022-12-17T08:02:38.063Z,100741.98
2022-12-17T08:05:47.308Z,100741.84
2022-12-17T08:08:52.396Z,100735.54
2022-12-17T08:12:24.115Z,100744.06
2022-12-17T08:15:38.154Z,100749.80
2022-12-17T08:18:43.507Z,100747.20
2022-12-17T08:21:48.600Z,100755.44
2022-12-17T08:29:22.114Z,100764.73
2022-12-17T08:38:39.045Z,100775.77
2022-12-17T08:41:46.580Z,100784.48
2022-12-17T08:44:53.873Z,100783.48
2022-12-17T08:48:03.653Z,100786.95
2022-12-17T08:51:27.440Z,100791.78
2022-12-17T08:54:35.975Z,100800.57
2022-12-17T08:57:41.632Z,100800.90
2022-12-17T09:00:47.155Z,100808.55
2022-12-17T09:05:14.301Z,100808.98
2022-12-17T09:09:30.134Z,100812.73
2022-12-17T09:13:43.888Z,100813.13
2022-12-17T09:18:11.118Z,100821.87
2022-12-17T09:21:45.726Z,100825.52
2022-12-17T09:26:12.338Z,100832.02
2022-12-17T09:29:51.517Z,100829.05
2022-12-17T09:44:22.932Z,100838.88
2022-12-17T09:47:56.007Z,100842.88
2022-12-17T09:52:10.437Z,100846.48
2022-12-17T10:06:54.037Z,100849.72
2022-12-17T10:23:58.191Z,100849.52
2022-12-17T10:28:25.643Z,100857.02
2022-12-17T10:31:52.870Z,100867.25
2022-12-17T10:36:09.376Z,100889.53
2022-12-17T10:39:31.891Z,100902.20
2022-12-17T10:42:44.231Z,100910.11
2022-12-17T10:45:54.827Z,100913.98
2022-12-17T10:49:00.756Z,100908.61
2022-12-17T10:52:06.422Z,100901.48
2022-12-17T10:55:18.805Z,100895.51
2022-12-17T10:58:35.024Z,100886.40
2022-12-17T11:01:44.970Z,100887.91
2022-12-17T11:04:57.705Z,100896.08
2022-12-17T11:08:03.692Z,100903.76
2022-12-17T11:11:09.441Z,100914.37
2022-12-17T11:14:17.584Z,100907.95
2022-12-17T11:17:26.177Z,100902.94
2022-12-17T11:23:36.892Z,100911.45
2022-12-17T12:05:56.272Z,100942.57
2022-12-17T12:33:56.022Z,100963.04
2022-12-17T12:37:21.887Z,100971.59
2022-12-17T12:41:08.113Z,100985.50
2022-12-17T12:45:01.566Z,100987.77
2022-12-17T12:48:21.018Z,100987.53
2022-12-17T12:52:45.093Z,100993.91
2022-12-17T12:56:14.725Z,100999.70
2022-12-17T13:01:18.677Z,100999.84
2022-12-17T13:15:33.405Z,101003.61
2022-12-17T13:19:33.867Z,100995.98
2022-12-17T13:23:28.221Z,100995.80
2022-12-17T13:37:24.331Z,101006.52
2022-12-17T13:50:55.266Z,101022.25
2022-12-17T13:53:58.671Z,101026.77
2022-12-17T13:58:01.038Z,101041.81
2022-12-17T14:01:45.223Z,101045.06
2022-12-17T14:05:44.626Z,101052.23
2022-12-17T14:09:43.238Z,101048.27
2022-12-17T14:13:37.668Z,101051.24
2022-12-17T14:17:49.950Z,101054.44
2022-12-17T14:20:37.091Z,101059.94
2022-12-17T14:23:29.991Z,101068.52
2022-12-17T14:26:17.363Z,101070.55
2022-12-17T14:29:13.332Z,101076.02
2022-12-17T14:43:01.829Z,101084.63
2022-12-17T14:46:14.948Z,101089.02
2022-12-17T14:49:04.883Z,101093.27
2022-12-17T14:51:51.468Z,101091.52
2022-12-17T15:07:00.248Z,101108.67
2022-12-17T15:09:57.860Z,101120.58
2022-12-17T15:13:56.548Z,101125.57
2022-12-17T15:18:12.881Z,101124.04
2022-12-17T15:21:37.359Z,101128.36
2022-12-17T15:25:37.627Z,101132.44
2022-12-17T15:29:38.387Z,101142.54
2022-12-17T15:33:48.044Z,101138.77
2022-12-17T15:36:35.147Z,101143.21
2022-12-17T15:39:21.569Z,101136.17
2022-12-17T15:42:27.832Z,101139.90
2022-12-17T15:45:14.007Z,101147.95
2022-12-17T15:49:51.867Z,101150.84
2022-12-17T15:52:39.265Z,101151.40
2022-12-17T15:55:25.789Z,101156.45
2022-12-17T15:58:12.569Z,101158.29
2022-12-17T16:00:59.002Z,101164.75
2022-12-17T16:03:45.746Z,101168.67
2022-12-17T16:06:33.564Z,101176.00
2022-12-17T16:09:24.285Z,101178.52
2022-12-17T16:12:10.690Z,101182.83
2022-12-17T16:14:57.619Z,101188.32
2022-12-17T16:17:44.265Z,101189.73
2022-12-17T16:20:30.653Z,101188.55
2022-12-17T16:24:21.710Z,101189.41
2022-12-17T16:27:08.433Z,101192.84
2022-12-17T16:29:59.477Z,101197.95
2022-12-17T16:32:49.666Z,101196.23
2022-12-17T16:35:43.779Z,101197.58
2022-12-17T16:38:31.543Z,101197.91
2022-12-17T16:41:23.695Z,101200.98
2022-12-17T16:44:12.102Z,101207.10
2022-12-17T16:46:59.901Z,101212.39
2022-12-17T16:49:46.508Z,101218.19
2022-12-17T16:52:40.586Z,101218.20
2022-12-17T16:55:28.381Z,101222.28
2022-12-17T16:58:18.207Z,101231.98
2022-12-17T17:01:04.772Z,101236.91
2022-12-17T17:03:51.705Z,101242.55
2022-12-17T17:06:45.218Z,101246.14
2022-12-17T17:09:31.868Z,101250.22
2022-12-17T17:12:18.293Z,101249.19
2022-12-17T17:15:08.286Z,101253.09
2022-12-17T17:17:57.561Z,101253.95
2022-12-17T17:20:48.364Z,101261.95
2022-12-17T17:23:34.962Z,101269.77
2022-12-17T17:26:25.405Z,101278.30
2022-12-17T17:29:12.050Z,101284.25
2022-12-17T17:32:10.643Z,101285.77
2022-12-17T17:36:28.843Z,101284.94
2022-12-17T17:40:27.438Z,101282.89
2022-12-17T17:44:24.844Z,101284.44
2022-12-17T17:48:35.236Z,101284.77
2022-12-17T17:52:09.872Z,101285.63
2022-12-17T17:56:24.059Z,101288.85
2022-12-17T17:59:55.819Z,101291.73
2022-12-17T19:23:49.482Z,101399.30
2022-12-17T22:44:31.383Z,101602.86
2022-12-17T22:54:52.469Z,101623.48
